createdAt,value
2019-02-04T00:02:13.177Z,1.43
2019-02-04T00:07:14.773Z,1.52
2019-02-04T00:12:16.467Z,1.59
2019-02-04T00:17:18.068Z,1.60
2019-02-04T00:22:19.708Z,1.64
2019-02-04T00:27:21.279Z,1.72
2019-02-04T00:32:22.982Z,1.74
2019-02-04T00:37:24.570Z,1.73
2019-02-04T00:42:26.171Z,1.64
2019-02-04T00:47:27.766Z,1.67
2019-02-04T00:52:29.336Z,1.63
2019-02-04T00:57:31.011Z,1.64
2019-02-04T01:02:33.112Z,1.60
2019-02-04T01:07:34.690Z,1.54
2019-02-04T01:12:36.371Z,1.52
2019-02-04T01:17:37.964Z,1.61
2019-02-04T01:22:39.655Z,1.73
2019-02-04T01:27:41.725Z,1.73
2019-02-04T01:32:43.307Z,1.67
2019-02-04T01:37:44.975Z,1.55
2019-02-04T01:42:46.633Z,1.51
2019-02-04T01:47:48.327Z,1.47
2019-02-04T01:52:50.105Z,1.36
2019-02-04T01:57:53.852Z,1.25
2019-02-04T02:02:55.512Z,1.25
2019-02-04T02:07:57.193Z,1.28
2019-02-04T02:12:58.872Z,1.38
2019-02-04T02:18:00.527Z,1.46
2019-02-04T02:23:02.218Z,1.53
2019-02-04T02:28:04.242Z,1.62
2019-02-04T02:33:05.963Z,1.71
2019-02-04T02:38:07.511Z,1.75
2019-02-04T02:43:11.545Z,1.78
2019-02-04T02:48:12.547Z,1.82
2019-02-04T02:53:14.286Z,1.85
2019-02-04T02:58:15.843Z,1.82
2019-02-04T03:03:17.525Z,1.73
2019-02-04T03:08:19.095Z,1.63
2019-02-04T03:13:20.651Z,1.60
2019-02-04T03:18:22.429Z,1.63
2019-02-04T03:23:24.298Z,1.67
2019-02-04T03:28:25.885Z,1.64
2019-02-04T03:33:27.458Z,1.68
2019-02-04T03:38:29.022Z,1.72
2019-02-04T03:43:30.694Z,1.75
2019-02-04T03:48:32.556Z,1.73
2019-02-04T03:53:34.219Z,1.68
2019-02-04T03:58:35.912Z,1.67
2019-02-04T04:03:37.620Z,1.58
2019-02-04T04:08:39.323Z,1.54
2019-02-04T04:13:41.397Z,1.47
2019-02-04T04:18:42.958Z,1.43
2019-02-04T04:23:44.522Z,1.38
2019-02-04T04:28:46.189Z,1.29
2019-02-04T04:33:47.768Z,1.25
2019-02-04T04:38:49.369Z,1.17
2019-02-04T04:43:50.960Z,1.08
2019-02-04T04:48:52.520Z,1.01
2019-02-04T04:53:54.066Z,0.97
2019-02-04T04:58:55.733Z,0.98
2019-02-04T05:03:57.333Z,1.01
2019-02-04T05:08:58.906Z,1.07
2019-02-04T05:14:00.584Z,1.11
2019-02-04T05:19:02.663Z,1.10
2019-02-04T05:24:04.240Z,1.11
2019-02-04T05:29:05.868Z,1.10
2019-02-04T05:34:07.542Z,1.09
2019-02-04T05:39:09.246Z,1.05
2019-02-04T05:44:11.286Z,1.02
2019-02-04T05:49:12.965Z,0.98
2019-02-04T05:54:14.555Z,0.98
2019-02-04T05:59:16.133Z,0.91
2019-02-04T06:04:17.742Z,0.88
2019-02-04T06:09:19.433Z,0.89
2019-02-04T06:14:21.012Z,0.89
2019-02-04T06:19:22.708Z,0.90
2019-02-04T06:24:24.404Z,0.85
2019-02-04T06:29:25.981Z,0.80
2019-02-04T06:34:27.562Z,0.73
2019-02-04T06:39:29.151Z,0.72
2019-02-04T06:44:30.937Z,0.80
2019-02-04T06:49:32.802Z,0.80
2019-02-04T06:54:34.388Z,0.79
2019-02-04T06:59:35.970Z,0.79
2019-02-04T07:04:37.543Z,0.82
2019-02-04T07:09:39.216Z,0.81
2019-02-04T07:14:40.802Z,0.86
2019-02-04T07:19:42.496Z,0.91
2019-02-04T07:24:44.180Z,0.92
2019-02-04T07:29:45.870Z,1.00
2019-02-04T07:34:47.461Z,1.04
2019-02-04T07:39:49.039Z,1.13
2019-02-04T07:44:50.615Z,1.16
2019-02-04T07:49:52.206Z,1.16
2019-02-04T07:54:54.185Z,1.26
2019-02-04T07:59:55.781Z,1.32
2019-02-04T08:04:57.425Z,1.39
2019-02-04T08:10:16.860Z,1.44
2019-02-04T08:15:21.231Z,1.51
2019-02-04T08:20:22.955Z,1.55
2019-02-04T08:25:25.961Z,1.50
2019-02-04T08:30:30.877Z,1.53
2019-02-04T08:35:32.624Z,1.61
2019-02-04T08:40:34.398Z,1.66
2019-02-04T08:45:36.145Z,1.78
2019-02-04T08:50:37.934Z,1.86
2019-02-04T08:55:39.733Z,1.90
2019-02-04T09:00:41.616Z,1.94
2019-02-04T09:05:43.297Z,2.00
2019-02-04T09:10:44.964Z,2.07
2019-02-04T09:15:46.529Z,2.11
2019-02-04T09:20:48.131Z,2.13
2019-02-04T09:25:50.283Z,2.17
2019-02-04T09:30:52.567Z,2.18
2019-02-04T09:35:54.351Z,2.17
2019-02-04T09:40:56.106Z,2.23
2019-02-04T09:45:57.819Z,2.33
2019-02-04T09:51:00.713Z,2.36
2019-02-04T09:56:02.557Z,2.45
2019-02-04T10:01:04.636Z,2.50
2019-02-04T10:06:06.554Z,2.58
2019-02-04T10:11:08.312Z,2.59
2019-02-04T10:16:11.653Z,2.70
2019-02-04T10:21:13.751Z,2.76
2019-02-04T10:26:15.678Z,2.88
2019-02-04T10:31:17.412Z,2.97
2019-02-04T10:36:19.165Z,3.04
2019-02-04T10:41:20.935Z,3.18
2019-02-04T10:46:22.518Z,3.33
2019-02-04T10:51:24.203Z,3.52
2019-02-04T10:56:26.220Z,3.72
2019-02-04T11:01:27.946Z,3.88
2019-02-04T11:06:29.655Z,4.08
2019-02-04T11:11:31.473Z,4.38
2019-02-04T11:16:33.122Z,4.53
2019-02-04T11:21:34.846Z,4.66
2019-02-04T11:26:36.600Z,4.77
2019-02-04T11:31:38.215Z,4.93
2019-02-04T11:36:39.911Z,5.15
2019-02-04T11:41:41.459Z,5.38
2019-02-04T11:46:43.253Z,5.81
2019-02-04T11:51:44.838Z,12.27
2019-02-04T11:56:46.512Z,18.41
2019-02-04T12:01:48.504Z,21.21
2019-02-04T12:06:50.898Z,22.43
2019-02-04T12:11:55.642Z,23.00
2019-02-04T12:16:59.136Z,22.33
2019-02-04T12:22:02.700Z,20.37
2019-02-04T12:27:03.809Z,21.38
2019-02-04T12:32:05.491Z,22.55
2019-02-04T12:37:07.225Z,22.56
2019-02-04T12:42:09.106Z,22.39
2019-02-04T12:47:10.854Z,20.29
2019-02-04T12:52:12.536Z,19.19
2019-02-04T12:57:14.125Z,19.66
2019-02-04T13:02:15.723Z,19.99
2019-02-04T13:07:17.402Z,20.02
2019-02-04T13:12:19.100Z,19.35
2019-02-04T13:17:20.899Z,18.86
2019-02-04T13:22:22.594Z,18.62
2019-02-04T13:27:24.171Z,18.49
2019-02-04T13:32:26.087Z,18.13
2019-02-04T13:37:27.954Z,18.04
2019-02-04T13:42:29.648Z,17.25
2019-02-04T13:47:31.361Z,15.29
2019-02-04T13:52:33.055Z,12.83
2019-02-04T13:57:35.157Z,11.04
2019-02-04T14:02:36.879Z,9.70
2019-02-04T14:07:38.590Z,8.97
2019-02-04T14:12:40.294Z,8.52
2019-02-04T14:17:42.107Z,8.00
2019-02-04T14:22:44.347Z,7.89
2019-02-04T14:27:46.124Z,7.98
2019-02-04T14:32:47.878Z,7.65
2019-02-04T14:37:49.758Z,7.55
2019-02-04T14:43:01.063Z,7.61
2019-02-04T14:48:12.473Z,7.64
2019-02-04T14:53:54.271Z,7.28
2019-02-04T14:59:06.534Z,6.78
2019-02-04T15:04:41.704Z,6.29
2019-02-04T15:10:00.486Z,6.07
2019-02-04T15:15:28.619Z,5.89
2019-02-04T15:21:12.126Z,5.58
2019-02-04T15:27:05.011Z,5.37
2019-02-04T15:33:01.136Z,5.21
2019-02-04T15:38:17.102Z,5.05
2019-02-04T15:43:47.163Z,4.80
2019-02-04T15:49:35.051Z,4.62
2019-02-04T15:54:36.837Z,4.42
2019-02-04T15:59:38.464Z,4.26
2019-02-04T16:04:40.360Z,4.08
2019-02-04T16:09:41.966Z,3.95
2019-02-04T16:14:43.586Z,3.83
2019-02-04T16:19:45.167Z,3.75
2019-02-04T16:24:46.771Z,3.68
2019-02-04T16:29:48.834Z,3.64
2019-02-04T16:34:50.625Z,3.58
2019-02-04T16:39:52.366Z,3.49
2019-02-04T16:44:54.115Z,3.44
2019-02-04T16:49:56.276Z,3.33
2019-02-04T16:54:58.197Z,3.32
2019-02-04T16:59:59.897Z,3.21
2019-02-04T17:05:01.540Z,3.18
2019-02-04T17:10:06.627Z,3.13
2019-02-04T17:15:08.366Z,3.10
2019-02-04T17:20:25.081Z,3.05
2019-02-04T17:25:26.685Z,2.97
2019-02-04T17:30:28.499Z,2.93
2019-02-04T17:35:30.110Z,2.89
2019-02-04T17:40:31.931Z,2.90
2019-02-04T17:45:33.904Z,2.88
2019-02-04T17:50:35.696Z,2.93
2019-02-04T17:55:38.075Z,2.95
2019-02-04T18:00:43.846Z,2.89
2019-02-04T18:05:45.701Z,2.94
2019-02-04T18:10:47.951Z,2.91
2019-02-04T18:15:50.723Z,2.89
2019-02-04T18:20:53.560Z,2.94
2019-02-04T18:25:56.077Z,2.90
2019-02-04T18:30:58.554Z,2.88
2019-02-04T18:36:01.258Z,2.84
2019-02-04T18:41:05.461Z,2.78
2019-02-04T18:46:09.478Z,2.77
2019-02-04T18:51:13.426Z,2.67
2019-02-04T18:56:17.079Z,2.62
2019-02-04T19:01:20.207Z,2.55
2019-02-04T19:06:23.680Z,2.55
2019-02-04T19:11:26.770Z,2.46
2019-02-04T19:16:30.232Z,2.26
2019-02-04T19:21:33.264Z,2.22
2019-02-04T19:26:36.583Z,2.40
2019-02-04T19:31:39.525Z,2.49
2019-02-04T19:36:43.444Z,2.40
2019-02-04T19:41:47.314Z,2.39
2019-02-04T19:46:53.142Z,2.47
2019-02-04T19:51:56.993Z,2.42
2019-02-04T19:57:01.100Z,2.31
2019-02-04T20:02:06.524Z,2.21
2019-02-04T20:07:11.753Z,2.28
2019-02-04T20:12:16.839Z,2.33
2019-02-04T20:17:21.097Z,2.37
2019-02-04T20:22:25.852Z,2.31
2019-02-04T20:27:30.154Z,2.35
2019-02-04T20:32:34.441Z,2.23
2019-02-04T20:37:38.643Z,2.19
2019-02-04T20:42:42.155Z,2.09
2019-02-04T20:47:46.592Z,2.12
2019-02-04T20:52:50.905Z,2.05
2019-02-04T20:57:54.564Z,2.00
2019-02-04T21:02:57.638Z,1.93
2019-02-04T21:08:00.640Z,1.90
2019-02-04T21:13:03.781Z,1.97
2019-02-04T21:18:07.236Z,1.93
2019-02-04T21:23:09.955Z,1.92
2019-02-04T21:28:12.135Z,1.95
2019-02-04T21:33:14.377Z,1.97
2019-02-04T21:38:16.601Z,1.92
2019-02-04T21:43:18.175Z,1.89
2019-02-04T21:48:20.229Z,1.88
2019-02-04T21:53:22.201Z,1.92
2019-02-04T21:58:24.105Z,1.93
2019-02-04T22:03:25.844Z,1.94
2019-02-04T22:08:27.562Z,1.88
2019-02-04T22:13:29.580Z,1.88
2019-02-04T22:18:31.154Z,1.86
2019-02-04T22:23:32.775Z,1.92
2019-02-04T22:28:34.346Z,1.96
2019-02-04T22:33:35.912Z,2.01
2019-02-04T22:38:37.482Z,1.96
2019-02-04T22:43:39.165Z,1.92
2019-02-04T22:48:40.984Z,1.95
2019-02-04T22:53:42.545Z,1.97
2019-02-04T22:58:44.220Z,1.88
2019-02-04T23:03:45.790Z,1.82
2019-02-04T23:08:47.471Z,1.71
2019-02-04T23:13:49.339Z,1.72
2019-02-04T23:18:50.954Z,1.70
2019-02-04T23:23:52.643Z,1.64
2019-02-04T23:28:54.303Z,1.73
2019-02-04T23:33:55.877Z,1.80
2019-02-04T23:38:57.539Z,1.74
2019-02-04T23:43:59.109Z,1.69
2019-02-04T23:49:00.683Z,1.70
2019-02-04T23:54:02.377Z,1.70
2019-02-04T23:59:04.166Z,1.64
